Time;durP1;ratioP1;P1;durP2;ratioP2;P2;SDS_P1;SDS_P2;PMS_P1;PMS_P2;Temp;Humidity;BMP_temperature;BMP_pressure;BME280_temperature;BME280_humidity;BME280_pressure;Samples;Min_cycle;Max_cycle;Signal;HPM_P1;HPM_P2
2022/09/10 04:01:27;;;;;;;49.67;26.45;;;14.50;99.90;;;;;;6236243;22;20071;-82
2022/09/10 04:03:55;;;;;;;53.65;27.85;;;14.50;99.90;;;;;;6250382;22;20016;-86
2022/09/10 04:06:21;;;;;;;47.22;27.08;;;14.50;99.90;;;;;;6279059;22;20019;-84
2022/09/10 04:08:51;;;;;;;53.28;26.85;;;14.50;99.90;;;;;;6251737;22;20024;-83
2022/09/10 04:11:18;;;;;;;52.70;26.98;;;14.60;99.90;;;;;;6279012;22;20034;-87
2022/09/10 04:13:47;;;;;;;61.47;28.98;;;14.60;99.90;;;;;;6252024;22;20018;-85
2022/09/10 04:16:14;;;;;;;50.55;26.55;;;14.60;99.90;;;;;;6279343;22;20023;-83
2022/09/10 04:18:39;;;;;;;50.95;25.83;;;14.60;99.90;;;;;;6278887;22;20008;-86
2022/09/10 04:21:05;;;;;;;49.75;25.10;;;14.60;99.90;;;;;;6277794;22;20324;-84
2022/09/10 04:23:31;;;;;;;53.53;26.27;;;14.70;99.90;;;;;;6252085;22;20065;-87
2022/09/10 04:25:57;;;;;;;48.00;24.52;;;14.60;99.90;;;;;;6252317;22;20016;-86
2022/09/10 04:28:23;;;;;;;45.13;24.88;;;14.70;99.90;;;;;;6227438;22;20081;-88
2022/09/10 04:30:49;;;;;;;60.63;25.58;;;14.70;99.90;;;;;;6279756;22;20333;-89
2022/09/10 04:33:15;;;;;;;50.33;23.77;;;14.70;99.90;;;;;;6251491;22;20026;-84
2022/09/10 04:35:42;;;;;;;49.60;24.02;;;14.70;99.90;;;;;;6251920;22;20012;-82
2022/09/10 04:38:08;;;;;;;49.53;23.88;;;14.70;99.90;;;;;;6252593;22;20472;-85
2022/09/10 04:40:35;;;;;;;50.40;22.38;;;14.70;99.90;;;;;;6229089;22;20050;-84
2022/09/10 04:43:01;;;;;;;46.35;23.25;;;14.70;99.90;;;;;;6228356;22;20027;-83
2022/09/10 04:45:27;;;;;;;49.75;23.70;;;14.80;99.90;;;;;;6281019;22;20011;-85
2022/09/10 04:47:54;;;;;;;46.70;21.65;;;14.80;99.90;;;;;;6253891;22;20016;-87
2022/09/10 04:50:20;;;;;;;45.97;21.27;;;14.80;99.90;;;;;;6228327;22;20008;-86
2022/09/10 04:52:46;;;;;;;48.97;21.52;;;14.80;99.90;;;;;;6281395;22;20008;-87
2022/09/10 04:55:11;;;;;;;45.80;22.48;;;14.80;99.90;;;;;;6281256;22;20069;-87
2022/09/10 04:57:37;;;;;;;44.47;21.23;;;14.80;99.90;;;;;;6253998;22;20023;-85
2022/09/10 05:00:08;;;;;;;53.42;22.42;;;14.80;99.90;;;;;;6253740;22;20016;-84
2022/09/10 05:02:35;;;;;;;45.30;22.63;;;14.80;99.90;;;;;;6280843;22;20078;-85
2022/09/10 05:05:01;;;;;;;42.50;20.05;;;14.80;99.90;;;;;;6253508;22;20086;-85
2022/09/10 05:07:27;;;;;;;48.30;21.27;;;14.80;99.90;;;;;;6280531;22;20507;-83
2022/09/10 05:09:54;;;;;;;47.38;21.50;;;14.80;99.90;;;;;;6253434;22;20444;-84
2022/09/10 05:12:19;;;;;;;45.70;20.35;;;14.80;99.90;;;;;;6253674;22;20065;-87
2022/09/10 05:14:45;;;;;;;48.28;22.17;;;14.80;99.90;;;;;;6280901;22;20007;-86
2022/09/10 05:17:11;;;;;;;50.88;21.60;;;14.80;99.90;;;;;;6228751;22;20016;-84
2022/09/10 05:19:36;;;;;;;48.08;22.73;;;14.80;99.90;;;;;;6253771;22;20045;-83
2022/09/10 05:22:02;;;;;;;42.90;20.42;;;14.80;99.90;;;;;;6279199;22;20004;-85
2022/09/10 05:24:27;;;;;;;51.25;21.58;;;14.80;99.90;;;;;;6253167;22;20011;-85
2022/09/10 05:26:53;;;;;;;45.90;21.17;;;14.80;99.90;;;;;;6280146;22;20417;-83
2022/09/10 05:29:20;;;;;;;46.83;20.83;;;14.80;99.90;;;;;;6253182;22;20015;-84
2022/09/10 05:31:46;;;;;;;45.22;21.50;;;14.80;99.90;;;;;;6280252;22;20030;-83
2022/09/10 05:34:11;;;;;;;51.25;21.50;;;14.80;99.90;;;;;;6227422;22;20012;-86
2022/09/10 05:36:37;;;;;;;44.83;21.52;;;14.80;99.90;;;;;;6227299;22;20026;-86
2022/09/10 05:39:03;;;;;;;42.65;20.73;;;14.80;99.90;;;;;;6253126;22;20026;-87
2022/09/10 05:41:30;;;;;;;42.65;20.80;;;14.80;99.90;;;;;;6227770;22;20011;-86
2022/09/10 05:43:56;;;;;;;49.08;20.88;;;14.80;99.90;;;;;;6228248;22;20016;-85
2022/09/10 05:46:23;;;;;;;45.67;20.83;;;14.90;99.90;;;;;;6253261;22;20047;-86
2022/09/10 05:48:49;;;;;;;40.92;18.95;;;14.90;99.90;;;;;;6280260;22;20457;-85
2022/09/10 05:51:16;;;;;;;36.78;18.77;;;14.90;99.90;;;;;;6279886;22;20356;-84
2022/09/10 05:53:41;;;;;;;44.72;21.02;;;14.90;99.90;;;;;;6253141;22;20008;-87
2022/09/10 05:56:08;;;;;;;44.63;21.83;;;14.90;99.90;;;;;;6253116;22;20306;-84
2022/09/10 05:58:33;;;;;;;42.90;20.70;;;14.90;99.90;;;;;;6252547;22;20071;-88
2022/09/10 06:01:00;;;;;;;52.05;22.50;;;14.90;99.90;;;;;;6252566;22;20016;-86
2022/09/10 06:03:26;;;;;;;42.28;21.38;;;14.90;99.90;;;;;;6253267;22;20008;-88
2022/09/10 06:05:52;;;;;;;45.78;21.27;;;14.90;99.90;;;;;;6253615;22;20008;-86
2022/09/10 06:08:20;;;;;;;40.08;20.60;;;14.90;99.90;;;;;;6252435;22;20015;-81
2022/09/10 06:11:03;;;;;;;43.40;20.83;;;14.90;99.90;;;;;;6280064;22;20012;-87
2022/09/10 06:13:30;;;;;;;43.72;21.17;;;15.00;99.90;;;;;;6280151;22;20008;-82
2022/09/10 06:15:56;;;;;;;39.10;20.17;;;15.00;99.90;;;;;;6252753;22;20016;-88
2022/09/10 06:18:22;;;;;;;44.33;21.65;;;15.00;99.90;;;;;;6280874;22;20023;-85
2022/09/10 06:20:49;;;;;;;41.38;19.98;;;15.00;99.90;;;;;;6280185;22;20007;-84
2022/09/10 06:23:15;;;;;;;42.00;20.52;;;15.00;99.90;;;;;;6253427;22;20026;-85
2022/09/10 06:25:42;;;;;;;41.80;20.35;;;15.00;99.90;;;;;;6253437;22;20502;-85
2022/09/10 06:28:08;;;;;;;45.70;19.98;;;15.00;99.90;;;;;;6253472;22;20015;-85
2022/09/10 06:30:34;;;;;;;42.30;19.27;;;15.00;99.90;;;;;;6280728;22;20034;-85
2022/09/10 06:33:00;;;;;;;43.13;19.75;;;15.00;99.90;;;;;;6252997;22;20011;-84
2022/09/10 06:35:26;;;;;;;43.33;21.75;;;15.10;99.90;;;;;;6227883;22;20114;-88
2022/09/10 06:37:53;;;;;;;38.25;19.83;;;15.10;99.90;;;;;;6279927;22;20033;-84
2022/09/10 06:40:19;;;;;;;37.97;20.38;;;15.10;99.90;;;;;;6252606;22;20042;-85
2022/09/10 06:42:44;;;;;;;44.88;21.30;;;15.10;99.90;;;;;;6253342;22;20015;-82
2022/09/10 06:45:10;;;;;;;46.65;22.52;;;15.20;99.90;;;;;;6252149;22;20008;-85
2022/09/10 06:47:36;;;;;;;44.47;20.95;;;15.20;99.90;;;;;;6278648;22;20464;-85
2022/09/10 06:50:03;;;;;;;43.30;21.10;;;15.20;99.90;;;;;;6280108;22;20008;-87
2022/09/10 06:52:28;;;;;;;41.92;21.13;;;15.20;99.90;;;;;;6280362;22;20051;-86
2022/09/10 06:54:55;;;;;;;38.50;21.88;;;15.20;99.90;;;;;;6253737;22;20333;-89
2022/09/10 06:57:24;;;;;;;43.58;21.92;;;15.20;99.90;;;;;;6280497;22;20007;-85
2022/09/10 06:59:50;;;;;;;40.35;21.05;;;15.20;99.90;;;;;;6252506;22;20433;-82
2022/09/10 07:02:16;;;;;;;41.65;20.67;;;15.30;99.90;;;;;;6247358;22;20038;-85
2022/09/10 07:04:42;;;;;;;45.88;22.15;;;15.30;99.90;;;;;;6250557;23;20430;-88
2022/09/10 07:07:08;;;;;;;41.25;20.85;;;15.30;99.90;;;;;;6249359;23;20062;-83
2022/09/10 07:09:34;;;;;;;45.00;21.60;;;15.40;99.90;;;;;;6249588;22;20070;-86
2022/09/10 07:12:01;;;;;;;41.60;22.08;;;15.40;99.90;;;;;;6248527;22;20008;-89
2022/09/10 07:14:27;;;;;;;41.55;22.52;;;15.40;99.90;;;;;;6250690;22;20016;-87
2022/09/10 07:16:54;;;;;;;43.63;22.23;;;15.40;99.90;;;;;;6248932;23;20047;-84
2022/09/10 07:19:20;;;;;;;43.63;22.13;;;15.50;99.90;;;;;;6250151;22;20065;-86
2022/09/10 07:21:45;;;;;;;47.08;22.30;;;15.60;99.90;;;;;;6248307;22;20404;-86
2022/09/10 07:24:11;;;;;;;48.88;22.13;;;15.60;99.90;;;;;;6250021;23;20110;-87
2022/09/10 07:26:37;;;;;;;40.85;21.40;;;15.60;99.90;;;;;;6248134;23;20016;-87
2022/09/10 07:29:03;;;;;;;38.17;20.88;;;15.70;99.90;;;;;;6248694;23;20070;-83
2022/09/10 07:31:32;;;;;;;37.47;21.20;;;15.70;99.90;;;;;;6249140;22;20004;-87
2022/09/10 07:34:00;;;;;;;39.40;21.63;;;15.70;99.90;;;;;;6250181;22;20019;-87
2022/09/10 07:36:27;;;;;;;37.88;20.67;;;15.80;99.90;;;;;;6248613;23;20012;-86
2022/09/10 07:39:04;;;;;;;35.63;19.25;;;15.80;99.90;;;;;;6197672;23;20022;-89
2022/09/10 07:41:33;;;;;;;38.78;20.20;;;15.80;99.90;;;;;;6221094;23;20016;-83
2022/09/10 07:44:15;;;;;;;39.03;19.88;;;15.90;99.90;;;;;;6246153;23;20016;-84
2022/09/10 07:46:41;;;;;;;34.53;19.83;;;15.90;99.90;;;;;;6246977;23;20008;-83
2022/09/10 07:49:08;;;;;;;36.33;18.80;;;16.00;99.90;;;;;;6246925;23;20024;-83
2022/09/10 07:51:34;;;;;;;35.00;18.42;;;16.10;99.90;;;;;;6246372;22;20022;-80
2022/09/10 07:54:00;;;;;;;35.03;17.52;;;16.10;99.90;;;;;;6245190;23;20453;-88
2022/09/10 07:56:26;;;;;;;30.13;16.70;;;16.20;99.90;;;;;;6247228;22;20438;-81
2022/09/10 07:58:53;;;;;;;27.90;16.45;;;16.20;99.90;;;;;;6245496;23;20008;-83
2022/09/10 08:01:19;;;;;;;30.27;17.15;;;16.20;99.90;;;;;;6246280;22;20019;-82
2022/09/10 08:03:45;;;;;;;31.42;17.10;;;16.20;99.90;;;;;;6248110;22;20426;-79
2022/09/10 08:06:11;;;;;;;31.67;16.63;;;16.20;99.90;;;;;;6246206;23;20054;-83
2022/09/10 08:08:38;;;;;;;29.58;16.63;;;16.20;99.90;;;;;;6248452;22;20027;-81
2022/09/10 08:11:12;;;;;;;32.80;16.65;;;16.30;99.90;;;;;;6246204;22;20438;-83
2022/09/10 08:13:43;;;;;;;30.58;16.50;;;16.30;99.90;;;;;;6248169;23;20016;-82
2022/09/10 08:16:18;;;;;;;32.88;16.45;;;16.40;99.90;;;;;;6246340;23;20027;-81
2022/09/10 08:18:45;;;;;;;32.10;15.95;;;16.30;99.90;;;;;;6251905;23;20019;-78
2022/09/10 08:21:11;;;;;;;32.47;15.82;;;16.40;99.90;;;;;;6234732;23;20045;-80
2022/09/10 08:23:40;;;;;;;29.85;16.10;;;16.30;99.90;;;;;;6256640;23;20477;-81
2022/09/10 08:26:07;;;;;;;30.58;15.80;;;16.40;99.90;;;;;;6248142;23;20035;-82
2022/09/10 08:28:33;;;;;;;26.13;15.95;;;16.40;99.90;;;;;;6246284;23;20039;-81
2022/09/10 08:31:11;;;;;;;31.45;16.33;;;16.40;99.90;;;;;;6245960;22;20016;-83
2022/09/10 08:33:38;;;;;;;32.35;16.27;;;16.50;99.90;;;;;;6245517;23;20066;-82
2022/09/10 08:36:07;;;;;;;27.80;15.52;;;16.50;99.90;;;;;;6246146;23;20426;-81
2022/09/10 08:38:40;;;;;;;30.48;16.23;;;16.60;99.90;;;;;;6245888;23;20016;-81
2022/09/10 08:41:12;;;;;;;27.48;15.55;;;16.60;99.90;;;;;;6245856;22;20023;-82
2022/09/10 08:44:22;;;;;;;30.15;16.70;;;16.80;99.90;;;;;;6220081;23;20361;-82
2022/09/10 08:46:55;;;;;;;26.80;14.38;;;16.80;99.90;;;;;;6245844;23;20023;-81
2022/09/10 08:49:33;;;;;;;27.15;14.93;;;16.90;99.90;;;;;;6247500;22;20369;-83
2022/09/10 08:52:20;;;;;;;27.88;15.38;;;17.00;99.90;;;;;;6220346;23;20012;-83
2022/09/10 08:54:56;;;;;;;23.35;13.77;;;17.00;99.90;;;;;;6245860;23;20008;-83
2022/09/10 08:57:37;;;;;;;25.73;14.63;;;17.20;99.90;;;;;;6245502;23;20377;-82
2022/09/10 09:00:06;;;;;;;24.27;14.65;;;17.30;99.90;;;;;;6245862;23;20008;-82
2022/09/10 09:02:47;;;;;;;23.88;15.38;;;17.40;99.90;;;;;;6245539;22;20073;-82
2022/09/10 09:05:21;;;;;;;24.27;14.52;;;17.50;99.90;;;;;;6245694;23;20008;-83
2022/09/10 09:07:49;;;;;;;21.92;13.98;;;17.60;99.90;;;;;;6247699;22;20016;-83
2022/09/10 09:10:17;;;;;;;22.88;13.15;;;17.60;99.90;;;;;;6245730;22;20019;-82
2022/09/10 09:13:05;;;;;;;21.20;13.32;;;17.60;99.90;;;;;;6245847;23;20012;-82
2022/09/10 09:15:55;;;;;;;19.70;12.15;;;17.60;99.90;;;;;;6247274;22;20045;-82
2022/09/10 09:18:23;;;;;;;20.30;12.75;;;17.60;99.90;;;;;;6230163;23;20012;-81
2022/09/10 09:20:55;;;;;;;20.60;12.40;;;17.60;99.90;;;;;;6245108;22;20016;-82
2022/09/10 09:23:46;;;;;;;19.80;12.52;;;17.70;99.90;;;;;;6247863;22;20008;-82
2022/09/10 09:26:12;;;;;;;20.00;12.25;;;17.60;99.90;;;;;;6247384;23;20135;-83
2022/09/10 09:28:49;;;;;;;16.85;11.57;;;17.70;99.90;;;;;;6246954;23;20016;-81
2022/09/10 09:31:41;;;;;;;17.50;11.45;;;17.70;99.90;;;;;;6248774;22;20004;-82
2022/09/10 09:34:40;;;;;;;18.83;11.00;;;17.70;99.90;;;;;;6247075;23;20012;-82
2022/09/10 09:37:28;;;;;;;19.40;11.65;;;17.80;99.90;;;;;;6241123;23;20012;-82
2022/09/10 09:40:27;;;;;;;21.38;11.55;;;17.80;99.90;;;;;;6247763;23;20013;-82
2022/09/10 09:43:08;;;;;;;18.63;10.50;;;17.90;99.90;;;;;;6247364;23;20341;-81
2022/09/10 09:45:41;;;;;;;18.10;10.60;;;18.00;99.90;;;;;;6247218;23;20039;-83
2022/09/10 09:48:12;;;;;;;15.70;9.93;;;18.10;99.90;;;;;;6249585;22;20012;-83
2022/09/10 09:50:40;;;;;;;17.58;10.43;;;18.10;99.90;;;;;;6247155;22;20020;-82
2022/09/10 09:53:14;;;;;;;17.60;10.05;;;18.20;99.90;;;;;;6247029;23;20024;-82
2022/09/10 09:56:00;;;;;;;16.10;9.93;;;18.30;99.90;;;;;;6246962;23;20405;-81
2022/09/10 09:58:29;;;;;;;14.90;9.52;;;18.30;99.90;;;;;;6248152;22;20365;-82
2022/09/10 10:01:09;;;;;;;16.20;9.18;;;18.40;99.90;;;;;;6250233;22;20015;-82
2022/09/10 10:03:51;;;;;;;14.15;9.50;;;18.40;99.90;;;;;;6251894;22;20018;-82
2022/09/10 10:06:21;;;;;;;17.13;9.70;;;18.50;99.90;;;;;;6251734;22;20087;-83
2022/09/10 10:09:18;;;;;;;15.15;9.00;;;18.60;99.90;;;;;;6251695;22;20342;-82
2022/09/10 10:11:56;;;;;;;14.15;8.50;;;18.60;99.90;;;;;;6251467;22;20061;-83
2022/09/10 10:14:38;;;;;;;12.45;8.60;;;18.70;99.90;;;;;;6226354;22;20102;-82
2022/09/10 10:17:24;;;;;;;17.52;10.13;;;18.80;99.90;;;;;;6278787;22;20082;-82
2022/09/10 10:19:59;;;;;;;12.30;7.82;;;18.90;99.90;;;;;;6251383;22;20081;-82
2022/09/10 10:22:26;;;;;;;12.30;7.65;;;19.00;99.90;;;;;;6251409;22;20016;-82
2022/09/10 10:24:53;;;;;;;13.65;7.88;;;19.00;99.90;;;;;;6251320;22;20015;-82
2022/09/10 10:27:31;;;;;;;13.57;8.35;;;19.00;99.90;;;;;;6251797;22;20328;-82
2022/09/10 10:30:20;;;;;;;14.25;8.18;;;19.00;99.90;;;;;;6250850;22;20023;-81
2022/09/10 10:32:52;;;;;;;11.48;6.15;;;19.10;99.90;;;;;;6250954;22;20007;-82
2022/09/10 10:35:45;;;;;;;10.93;7.30;;;19.20;99.90;;;;;;6277456;22;20054;-81
2022/09/10 10:38:30;;;;;;;12.20;7.30;;;19.20;99.90;;;;;;6251296;22;20019;-81
2022/09/10 10:41:08;;;;;;;11.88;7.80;;;19.30;99.90;;;;;;6250425;22;20441;-83
2022/09/10 10:43:55;;;;;;;12.38;7.47;;;19.40;99.90;;;;;;6250761;22;20314;-82
2022/09/10 10:46:26;;;;;;;10.98;7.13;;;19.60;99.90;;;;;;6225183;22;20012;-83
2022/09/10 10:49:04;;;;;;;10.52;6.78;;;19.80;99.90;;;;;;6250464;22;20058;-82
2022/09/10 10:51:34;;;;;;;10.88;6.28;;;19.90;99.90;;;;;;6250802;22;20011;-83
2022/09/10 10:54:29;;;;;;;9.85;7.00;;;20.00;99.90;;;;;;6277922;22;20344;-82
2022/09/10 10:57:01;;;;;;;11.65;7.15;;;20.00;99.90;;;;;;6277699;22;20011;-82
2022/09/10 10:59:57;;;;;;;12.52;6.57;;;20.00;99.90;;;;;;6250550;22;20101;-81
2022/09/10 11:02:43;;;;;;;12.25;6.70;;;19.90;99.90;;;;;;6245757;23;20386;-82
2022/09/10 11:05:51;;;;;;;8.68;5.50;;;19.80;99.90;;;;;;6245402;23;20087;-85
2022/09/10 11:08:25;;;;;;;9.07;5.65;;;19.80;99.90;;;;;;6226639;23;20016;-83
2022/09/10 11:11:19;;;;;;;9.13;5.93;;;19.80;99.90;;;;;;6243714;22;20020;-76
2022/09/10 11:14:17;;;;;;;9.32;5.63;;;19.80;99.90;;;;;;6244933;23;20087;-77
2022/09/10 11:16:53;;;;;;;9.93;5.70;;;19.90;99.90;;;;;;6242136;23;20008;-76
2022/09/10 11:19:34;;;;;;;8.73;5.45;;;20.00;99.90;;;;;;6245267;23;20016;-78
2022/09/10 11:22:22;;;;;;;7.82;5.30;;;20.00;99.90;;;;;;6245030;22;20016;-79
2022/09/10 11:25:15;;;;;;;10.23;5.75;;;20.10;99.90;;;;;;6243937;23;20016;-78
2022/09/10 11:27:57;;;;;;;10.13;6.07;;;20.20;99.90;;;;;;6244269;23;20020;-80
2022/09/10 11:30:22;;;;;;;9.50;5.50;;;20.20;99.90;;;;;;6220095;22;20503;-80
2022/09/10 11:33:04;;;;;;;10.55;6.07;;;20.20;99.90;;;;;;6245064;23;20015;-80
2022/09/10 11:35:47;;;;;;;10.55;5.18;;;20.20;99.90;;;;;;6245249;23;20369;-81
2022/09/10 11:38:13;;;;;;;11.05;5.60;;;20.30;99.90;;;;;;6247404;22;20008;-81
2022/09/10 11:40:51;;;;;;;9.40;5.93;;;20.30;99.90;;;;;;6219519;23;20043;-81
2022/09/10 11:43:48;;;;;;;13.27;5.90;;;20.40;99.90;;;;;;6245035;23;20039;-81
2022/09/10 11:46:46;;;;;;;10.93;5.50;;;20.50;99.90;;;;;;6244814;23;20019;-81
2022/09/10 11:50:12;;;;;;;;;;;;;;;;;;;;;
2022/09/10 11:52:43;;;;;;;6.90;4.90;;;20.60;99.90;;;;;;6153606;23;20010;-81
2022/09/10 11:55:59;;;;;;;12.20;4.80;;;20.90;99.90;;;;;;6129346;23;20431;-82
2022/09/10 11:58:14;;;;;;;11.35;5.20;;;21.10;99.90;;;;;;6118998;23;20022;-82
2022/09/10 12:04:59;;;;;;;9.18;4.95;;;21.40;99.90;;;;;;6127912;23;20029;-82
2022/09/10 12:08:21;;;;;;;;;;;;;;;;;;;;;
2022/09/10 12:11:27;;;;;;;9.65;4.93;;;21.60;99.90;;;;;;6128215;23;20128;-82
2022/09/10 12:17:48;;;;;;;9.32;5.15;;;21.40;99.90;;;;;;6037695;23;20027;-82
2022/09/10 12:23:03;;;;;;;10.80;5.45;;;21.20;99.90;;;;;;6275390;22;20437;-84
2022/09/10 12:25:30;;;;;;;7.57;5.47;;;21.20;99.90;;;;;;6249976;22;20015;-80
2022/09/10 12:28:00;;;;;;;10.50;5.93;;;21.20;99.90;;;;;;6224733;22;20018;-81
2022/09/10 12:30:28;;;;;;;9.25;5.68;;;21.10;99.90;;;;;;6249790;22;20031;-80
2022/09/10 12:33:00;;;;;;;10.15;5.82;;;21.10;99.90;;;;;;6225405;22;20111;-85
2022/09/10 12:35:31;;;;;;;10.90;5.60;;;21.10;99.90;;;;;;6251516;22;20016;-79
2022/09/10 12:38:39;;;;;;;8.80;5.25;;;21.20;99.90;;;;;;6250016;22;20388;-82
2022/09/10 12:41:23;;;;;;;9.90;5.63;;;21.30;99.90;;;;;;6246581;22;20011;-80
2022/09/10 12:44:23;;;;;;;10.40;5.60;;;21.40;99.90;;;;;;6249180;22;20015;-79
2022/09/10 12:47:14;;;;;;;8.57;5.72;;;21.60;99.90;;;;;;6276587;22;20016;-79
2022/09/10 12:49:47;;;;;;;9.13;5.13;;;21.70;99.90;;;;;;6248379;22;20008;-80
2022/09/10 12:52:20;;;;;;;10.18;4.80;;;21.80;99.90;;;;;;6276542;22;20346;-80
2022/09/10 12:54:51;;;;;;;9.25;4.80;;;21.80;99.90;;;;;;6224223;22;20019;-80
2022/09/10 12:57:49;;;;;;;11.35;4.45;;;21.90;99.90;;;;;;6249582;22;20047;-80
2022/09/10 13:00:29;;;;;;;10.60;4.60;;;21.80;99.90;;;;;;6217712;22;20062;-78
2022/09/10 13:03:08;;;;;;;7.63;4.22;;;21.80;99.90;;;;;;6251464;22;20016;-80
2022/09/10 13:05:42;;;;;;;8.15;3.70;;;21.80;99.90;;;;;;6251305;22;20023;-79
2022/09/10 13:08:13;;;;;;;10.27;4.07;;;22.00;99.90;;;;;;6251387;22;20019;-80
2022/09/10 13:11:02;;;;;;;9.35;4.25;;;22.00;99.90;;;;;;6278690;22;20008;-79
2022/09/10 13:13:43;;;;;;;7.32;4.50;;;22.00;99.90;;;;;;6251048;22;20018;-78
2022/09/10 13:16:35;;;;;;;8.77;4.43;;;21.90;99.90;;;;;;6251352;22;20341;-80
2022/09/10 13:19:18;;;;;;;9.93;4.70;;;22.10;99.90;;;;;;6251371;22;20019;-80
2022/09/10 13:21:43;;;;;;;7.10;4.18;;;22.30;99.90;;;;;;6250986;22;20022;-78
2022/09/10 13:24:34;;;;;;;9.35;4.20;;;22.50;99.90;;;;;;6251296;22;20019;-79
2022/09/10 13:27:15;;;;;;;6.50;3.90;;;22.50;99.90;;;;;;6251161;22;20326;-81
2022/09/10 13:30:08;;;;;;;9.10;3.60;;;22.40;99.90;;;;;;6278188;22;20011;-80
2022/09/10 13:33:03;;;;;;;5.40;3.03;;;22.40;99.90;;;;;;6251064;22;20084;-80
2022/09/10 13:35:44;;;;;;;10.15;3.80;;;22.50;99.90;;;;;;6222756;22;20344;-80
2022/09/10 13:38:18;;;;;;;6.93;3.47;;;22.70;99.90;;;;;;6225908;22;20019;-79
2022/09/10 13:41:13;;;;;;;8.02;3.78;;;22.90;99.90;;;;;;6250991;22;20337;-79
2022/09/10 13:44:11;;;;;;;6.93;3.33;;;23.00;99.90;;;;;;6251961;22;20444;-80
2022/09/10 13:46:45;;;;;;;6.82;3.55;;;23.10;99.90;;;;;;6250791;22;20019;-79
2022/09/10 13:49:18;;;;;;;9.38;4.00;;;23.20;99.90;;;;;;6278154;22;20074;-78
2022/09/10 13:51:54;;;;;;;5.63;3.83;;;23.30;99.90;;;;;;6251314;22;20011;-78
2022/09/10 13:54:35;;;;;;;5.97;3.63;;;23.40;99.90;;;;;;6251168;22;20008;-79
2022/09/10 13:57:24;;;;;;;8.55;3.15;;;23.40;99.90;;;;;;6250739;22;20016;-78
2022/09/10 13:59:54;;;;;;;5.18;3.13;;;23.20;99.90;;;;;;6250761;22;20023;-79
2022/09/10 14:02:20;;;;;;;5.97;3.00;;;23.20;99.90;;;;;;6250781;22;20016;-80
2022/09/10 14:04:46;;;;;;;6.32;3.10;;;23.20;99.90;;;;;;6278114;22;20004;-80
2022/09/10 14:07:21;;;;;;;10.05;4.47;;;23.20;99.90;;;;;;6250821;22;20146;-78
2022/09/10 14:09:50;;;;;;;10.73;4.60;;;23.30;99.90;;;;;;6251102;22;20014;-81
2022/09/10 14:12:19;;;;;;;7.05;4.38;;;23.40;99.90;;;;;;6251327;22;20007;-77
2022/09/10 14:14:49;;;;;;;6.72;3.35;;;23.50;99.90;;;;;;6251446;22;20019;-78
2022/09/10 14:17:36;;;;;;;8.30;3.78;;;23.50;99.90;;;;;;6278622;22;20079;-79
2022/09/10 14:20:11;;;;;;;6.43;3.08;;;23.60;99.90;;;;;;6251268;22;20019;-79
2022/09/10 14:22:37;;;;;;;7.00;3.00;;;23.50;99.90;;;;;;6250992;22;20074;-79
2022/09/10 14:25:04;;;;;;;5.35;2.70;;;23.30;99.90;;;;;;6250948;22;20110;-79
2022/09/10 14:27:35;;;;;;;5.80;2.90;;;23.20;99.90;;;;;;6251313;22;20441;-80
2022/09/10 14:30:22;;;;;;;6.35;3.53;;;23.20;99.90;;;;;;6251433;22;20441;-80
2022/09/10 14:32:49;;;;;;;6.80;3.33;;;23.20;99.90;;;;;;6279232;22;20035;-78
2022/09/10 14:35:34;;;;;;;4.97;2.53;;;23.30;99.90;;;;;;6281999;22;20326;-79
2022/09/10 14:38:03;;;;;;;;;;;23.40;99.90;;;;;;6253293;22;20034;-79
2022/09/10 14:40:35;;;;;;;7.47;2.65;;;23.50;99.90;;;;;;6279075;22;19918;-78
2022/09/10 14:43:28;;;;;;;7.30;2.92;;;23.50;99.90;;;;;;6280191;22;20019;-77
2022/09/10 14:45:53;;;;;;;7.85;3.20;;;23.30;99.90;;;;;;6252055;22;20449;-78
2022/09/10 14:48:43;;;;;;;9.52;3.22;;;23.00;99.90;;;;;;6251190;22;20069;-77
2022/09/10 14:51:17;;;;;;;6.70;3.28;;;22.80;99.90;;;;;;6251726;22;20008;-78
2022/09/10 14:53:45;;;;;;;5.10;2.60;;;22.40;99.90;;;;;;6251249;22;20047;-79
2022/09/10 14:56:27;;;;;;;5.28;2.95;;;22.30;99.90;;;;;;6251021;22;20469;-80
2022/09/10 14:58:58;;;;;;;4.53;2.80;;;22.10;99.90;;;;;;6250892;22;20069;-80
2022/09/10 15:01:25;;;;;;;5.93;3.00;;;22.10;99.90;;;;;;6250787;22;20012;-78
2022/09/10 15:03:51;;;;;;;6.25;2.90;;;22.30;99.90;;;;;;6250410;22;20047;-78
2022/09/10 15:06:17;;;;;;;7.45;3.40;;;22.50;99.90;;;;;;6250597;22;20016;-78
2022/09/10 15:08:44;;;;;;;6.95;3.63;;;22.60;99.90;;;;;;6250554;22;20011;-79
2022/09/10 15:11:16;;;;;;;7.90;3.50;;;22.80;99.90;;;;;;6250580;22;20012;-78
2022/09/10 15:13:44;;;;;;;8.35;3.33;;;22.80;99.90;;;;;;6250499;22;20007;-79
2022/09/10 15:16:10;;;;;;;7.25;3.60;;;22.70;99.90;;;;;;6250723;22;20051;-77
2022/09/10 15:18:36;;;;;;;8.60;4.03;;;22.80;99.90;;;;;;6250782;22;20016;-78
2022/09/10 15:21:05;;;;;;;7.07;4.22;;;22.80;99.90;;;;;;6249831;22;20441;-78
2022/09/10 15:23:31;;;;;;;8.02;3.80;;;22.70;99.90;;;;;;6250332;22;20019;-79
2022/09/10 15:25:59;;;;;;;5.72;3.55;;;22.80;99.90;;;;;;6250202;22;20022;-79
2022/09/10 15:28:25;;;;;;;5.88;3.30;;;22.70;99.90;;;;;;6277481;22;20065;-78
2022/09/10 15:30:51;;;;;;;7.70;3.20;;;22.80;99.90;;;;;;6277592;22;20015;-79
2022/09/10 15:33:17;;;;;;;6.85;3.20;;;23.00;99.90;;;;;;6250330;22;20054;-79
2022/09/10 15:35:43;;;;;;;9.63;3.60;;;23.10;99.90;;;;;;6250157;22;20070;-78
2022/09/10 15:38:12;;;;;;;4.72;2.45;;;23.20;99.90;;;;;;6250117;22;20019;-79
2022/09/10 15:40:37;;;;;;;5.55;2.90;;;23.30;99.90;;;;;;6250018;22;20125;-79
2022/09/10 15:43:04;;;;;;;4.00;2.47;;;23.30;99.90;;;;;;6249886;22;20047;-78
2022/09/10 15:45:33;;;;;;;6.18;3.13;;;23.30;99.90;;;;;;6249935;22;20069;-79
2022/09/10 15:47:59;;;;;;;4.93;2.55;;;23.30;99.90;;;;;;6249991;22;20012;-79
2022/09/10 15:50:25;;;;;;;5.55;3.10;;;23.20;99.90;;;;;;6277522;22;20012;-79
2022/09/10 15:52:50;;;;;;;5.60;2.72;;;22.90;99.90;;;;;;6250161;22;20487;-79
2022/09/10 15:55:18;;;;;;;7.97;4.95;;;22.80;99.90;;;;;;6224631;22;20338;-81
2022/09/10 15:57:44;;;;;;;12.70;6.45;;;22.50;99.90;;;;;;6250714;22;20078;-78
2022/09/10 16:00:10;;;;;;;11.60;7.68;;;22.30;99.90;;;;;;6249869;22;20523;-80
2022/09/10 16:02:36;;;;;;;15.02;9.63;;;22.10;99.90;;;;;;6250068;22;20329;-78
2022/09/10 16:05:04;;;;;;;14.35;9.80;;;21.80;99.90;;;;;;6249794;22;20011;-79
2022/09/10 16:07:30;;;;;;;16.92;10.70;;;21.60;99.90;;;;;;6276691;22;20341;-80
2022/09/10 16:09:57;;;;;;;19.05;11.80;;;21.40;99.90;;;;;;6249796;22;20078;-78
2022/09/10 16:12:24;;;;;;;15.32;10.95;;;21.20;99.90;;;;;;6249656;22;20023;-80
2022/09/10 16:14:52;;;;;;;17.10;10.88;;;21.10;99.90;;;;;;6276917;22;20015;-78
2022/09/10 16:17:18;;;;;;;19.83;12.30;;;21.00;99.90;;;;;;6277274;22;20019;-79
2022/09/10 16:19:43;;;;;;;20.55;12.32;;;20.80;99.90;;;;;;6224517;22;20460;-78
2022/09/10 16:22:09;;;;;;;17.27;12.55;;;20.70;99.90;;;;;;6249776;22;20016;-79
2022/09/10 16:24:35;;;;;;;18.27;11.90;;;20.60;99.90;;;;;;6249747;22;20337;-79
2022/09/10 16:27:00;;;;;;;18.48;11.80;;;20.50;99.90;;;;;;6249473;22;20116;-77
2022/09/10 16:29:31;;;;;;;17.13;11.40;;;20.50;99.90;;;;;;6249634;22;20057;-79
2022/09/10 16:31:58;;;;;;;22.48;12.00;;;20.40;99.90;;;;;;6249546;22;20401;-79
2022/09/10 16:34:24;;;;;;;22.88;12.60;;;20.40;99.90;;;;;;6250774;22;20019;-78
2022/09/10 16:36:50;;;;;;;21.23;11.82;;;20.40;99.90;;;;;;6251581;22;20012;-78
2022/09/10 16:39:17;;;;;;;17.10;11.68;;;20.40;99.90;;;;;;6226465;22;20011;-80
2022/09/10 16:41:47;;;;;;;22.92;13.57;;;20.40;99.90;;;;;;6226225;22;20035;-79
2022/09/10 16:44:15;;;;;;;21.73;12.77;;;20.30;99.90;;;;;;6279098;22;20326;-79
2022/09/10 16:46:41;;;;;;;19.05;11.98;;;20.20;99.90;;;;;;6226000;22;20016;-79
2022/09/10 16:49:13;;;;;;;17.23;12.15;;;20.10;99.90;;;;;;6251509;22;20018;-79
2022/09/10 16:51:40;;;;;;;18.85;11.82;;;20.10;99.90;;;;;;6251410;22;20015;-78
2022/09/10 16:54:07;;;;;;;17.33;11.60;;;20.00;99.90;;;;;;6251439;22;20019;-79
2022/09/10 16:56:42;;;;;;;17.52;10.88;;;20.00;99.90;;;;;;6278814;22;20061;-79
2022/09/10 16:59:15;;;;;;;16.67;10.40;;;20.00;99.90;;;;;;6251474;22;20122;-79
2022/09/10 17:01:43;;;;;;;16.17;9.90;;;20.00;99.90;;;;;;6278754;22;20016;-79
2022/09/10 17:04:12;;;;;;;13.27;9.38;;;19.90;99.90;;;;;;6278554;22;20061;-78
2022/09/10 17:06:37;;;;;;;15.15;10.40;;;19.90;99.90;;;;;;6278763;22;20015;-79
2022/09/10 17:09:03;;;;;;;18.55;10.23;;;19.90;99.90;;;;;;6251380;22;20039;-79
2022/09/10 17:11:30;;;;;;;16.52;10.25;;;19.80;99.90;;;;;;6251173;22;20019;-78
2022/09/10 17:13:57;;;;;;;16.90;10.00;;;19.80;99.90;;;;;;6251222;22;20050;-79
2022/09/10 17:16:31;;;;;;;19.60;11.63;;;19.80;99.90;;;;;;6251963;22;20020;-79